sensor_id;sensor_type;location;lat;lon;timestamp;P1;durP1;ratioP1;P2;durP2;ratioP2
9720;SDS011;4899;42.644;23.366;2023-02-11T00:01:47;15.97;;;12.20;;
9720;SDS011;4899;42.644;23.366;2023-02-11T00:04:13;16.00;;;10.73;;
9720;SDS011;4899;42.644;23.366;2023-02-11T00:06:38;15.90;;;11.03;;
9720;SDS011;4899;42.644;23.366;2023-02-11T00:09:04;18.57;;;11.70;;
9720;SDS011;4899;42.644;23.366;2023-02-11T00:11:30;17.37;;;10.93;;
9720;SDS011;4899;42.644;23.366;2023-02-11T00:13:58;14.80;;;10.80;;
9720;SDS011;4899;42.644;23.366;2023-02-11T00:16:26;15.23;;;10.77;;
9720;SDS011;4899;42.644;23.366;2023-02-11T00:18:53;12.63;;;9.27;;
9720;SDS011;4899;42.644;23.366;2023-02-11T00:21:22;14.23;;;10.07;;
9720;SDS011;4899;42.644;23.366;2023-02-11T00:23:49;17.00;;;10.93;;
9720;SDS011;4899;42.644;23.366;2023-02-11T00:26:17;15.53;;;10.57;;
9720;SDS011;4899;42.644;23.366;2023-02-11T00:28:47;15.83;;;10.70;;
9720;SDS011;4899;42.644;23.366;2023-02-11T00:31:14;14.37;;;9.63;;
9720;SDS011;4899;42.644;23.366;2023-02-11T00:33:41;14.57;;;11.57;;
9720;SDS011;4899;42.644;23.366;2023-02-11T00:36:07;15.90;;;10.97;;
9720;SDS011;4899;42.644;23.366;2023-02-11T00:38:35;17.07;;;11.33;;
9720;SDS011;4899;42.644;23.366;2023-02-11T00:41:01;16.20;;;11.37;;
9720;SDS011;4899;42.644;23.366;2023-02-11T00:43:27;15.77;;;11.00;;
9720;SDS011;4899;42.644;23.366;2023-02-11T00:45:52;15.57;;;9.97;;
9720;SDS011;4899;42.644;23.366;2023-02-11T00:48:18;13.83;;;11.07;;
9720;SDS011;4899;42.644;23.366;2023-02-11T00:50:43;17.53;;;10.83;;
9720;SDS011;4899;42.644;23.366;2023-02-11T00:53:09;16.17;;;10.53;;
9720;SDS011;4899;42.644;23.366;2023-02-11T00:55:35;15.57;;;10.07;;
9720;SDS011;4899;42.644;23.366;2023-02-11T00:58:01;15.33;;;11.10;;
9720;SDS011;4899;42.644;23.366;2023-02-11T01:00:26;15.57;;;11.60;;
9720;SDS011;4899;42.644;23.366;2023-02-11T01:02:52;16.57;;;11.47;;
9720;SDS011;4899;42.644;23.366;2023-02-11T01:05:18;22.33;;;12.97;;
9720;SDS011;4899;42.644;23.366;2023-02-11T01:07:45;14.23;;;11.00;;
9720;SDS011;4899;42.644;23.366;2023-02-11T01:10:10;15.00;;;11.43;;
9720;SDS011;4899;42.644;23.366;2023-02-11T01:12:36;18.13;;;11.83;;
9720;SDS011;4899;42.644;23.366;2023-02-11T01:15:03;14.97;;;10.73;;
9720;SDS011;4899;42.644;23.366;2023-02-11T01:17:29;15.60;;;10.87;;
9720;SDS011;4899;42.644;23.366;2023-02-11T01:19:54;14.93;;;11.87;;
9720;SDS011;4899;42.644;23.366;2023-02-11T01:22:20;16.43;;;11.23;;
9720;SDS011;4899;42.644;23.366;2023-02-11T01:24:46;16.70;;;10.60;;
9720;SDS011;4899;42.644;23.366;2023-02-11T01:27:11;15.20;;;11.03;;
9720;SDS011;4899;42.644;23.366;2023-02-11T01:29:37;16.33;;;10.57;;
9720;SDS011;4899;42.644;23.366;2023-02-11T01:32:02;15.53;;;10.20;;
9720;SDS011;4899;42.644;23.366;2023-02-11T01:34:28;14.93;;;10.57;;
9720;SDS011;4899;42.644;23.366;2023-02-11T01:36:57;17.43;;;10.87;;
9720;SDS011;4899;42.644;23.366;2023-02-11T01:39:23;16.20;;;11.57;;
9720;SDS011;4899;42.644;23.366;2023-02-11T01:41:49;16.23;;;11.03;;
9720;SDS011;4899;42.644;23.366;2023-02-11T01:44:22;16.53;;;10.20;;
9720;SDS011;4899;42.644;23.366;2023-02-11T01:46:57;19.23;;;10.33;;
9720;SDS011;4899;42.644;23.366;2023-02-11T01:49:26;16.23;;;11.23;;
9720;SDS011;4899;42.644;23.366;2023-02-11T01:52:39;19.07;;;11.90;;
9720;SDS011;4899;42.644;23.366;2023-02-11T01:55:11;18.50;;;12.00;;
9720;SDS011;4899;42.644;23.366;2023-02-11T01:57:58;15.77;;;10.73;;
9720;SDS011;4899;42.644;23.366;2023-02-11T02:00:34;16.57;;;11.33;;
9720;SDS011;4899;42.644;23.366;2023-02-11T02:05:44;18.73;;;14.03;;
9720;SDS011;4899;42.644;23.366;2023-02-11T02:08:22;17.73;;;12.47;;
9720;SDS011;4899;42.644;23.366;2023-02-11T02:10:53;18.67;;;13.23;;
9720;SDS011;4899;42.644;23.366;2023-02-11T02:13:23;20.37;;;12.43;;
9720;SDS011;4899;42.644;23.366;2023-02-11T02:15:50;18.90;;;12.97;;
9720;SDS011;4899;42.644;23.366;2023-02-11T02:24:23;20.60;;;12.93;;
9720;SDS011;4899;42.644;23.366;2023-02-11T02:38:22;20.73;;;11.13;;
9720;SDS011;4899;42.644;23.366;2023-02-11T02:40:54;15.50;;;11.50;;
9720;SDS011;4899;42.644;23.366;2023-02-11T02:43:24;17.87;;;12.43;;
9720;SDS011;4899;42.644;23.366;2023-02-11T02:45:52;16.57;;;13.00;;
9720;SDS011;4899;42.644;23.366;2023-02-11T02:48:24;16.57;;;10.90;;
9720;SDS011;4899;42.644;23.366;2023-02-11T02:50:55;14.80;;;10.93;;
9720;SDS011;4899;42.644;23.366;2023-02-11T02:56:55;15.77;;;10.80;;
9720;SDS011;4899;42.644;23.366;2023-02-11T02:59:36;19.00;;;11.40;;
9720;SDS011;4899;42.644;23.366;2023-02-11T03:02:06;14.37;;;9.63;;
9720;SDS011;4899;42.644;23.366;2023-02-11T03:10:53;16.67;;;12.80;;
9720;SDS011;4899;42.644;23.366;2023-02-11T03:13:01;16.73;;;11.93;;
9720;SDS011;4899;42.644;23.366;2023-02-11T03:15:29;17.97;;;11.80;;
9720;SDS011;4899;42.644;23.366;2023-02-11T03:17:59;16.43;;;10.27;;
9720;SDS011;4899;42.644;23.366;2023-02-11T03:20:27;18.17;;;11.27;;
9720;SDS011;4899;42.644;23.366;2023-02-11T03:22:59;15.70;;;11.30;;
9720;SDS011;4899;42.644;23.366;2023-02-11T03:25:29;16.20;;;10.87;;
9720;SDS011;4899;42.644;23.366;2023-02-11T03:28:09;15.67;;;12.03;;
9720;SDS011;4899;42.644;23.366;2023-02-11T03:30:42;15.20;;;11.23;;
9720;SDS011;4899;42.644;23.366;2023-02-11T03:33:17;16.57;;;11.60;;
9720;SDS011;4899;42.644;23.366;2023-02-11T03:35:49;17.07;;;11.67;;
9720;SDS011;4899;42.644;23.366;2023-02-11T03:38:21;17.90;;;12.20;;
9720;SDS011;4899;42.644;23.366;2023-02-11T03:40:53;17.27;;;11.83;;
9720;SDS011;4899;42.644;23.366;2023-02-11T03:43:21;16.90;;;10.83;;
9720;SDS011;4899;42.644;23.366;2023-02-11T03:45:50;18.10;;;12.33;;
9720;SDS011;4899;42.644;23.366;2023-02-11T03:48:19;19.60;;;12.27;;
9720;SDS011;4899;42.644;23.366;2023-02-11T03:50:48;17.57;;;12.90;;
9720;SDS011;4899;42.644;23.366;2023-02-11T03:53:15;17.87;;;12.53;;
9720;SDS011;4899;42.644;23.366;2023-02-11T03:55:42;18.23;;;12.03;;
9720;SDS011;4899;42.644;23.366;2023-02-11T03:58:09;17.57;;;11.83;;
9720;SDS011;4899;42.644;23.366;2023-02-11T04:00:36;19.73;;;12.87;;
9720;SDS011;4899;42.644;23.366;2023-02-11T04:03:04;17.43;;;11.30;;
9720;SDS011;4899;42.644;23.366;2023-02-11T04:05:30;18.80;;;12.20;;
9720;SDS011;4899;42.644;23.366;2023-02-11T04:07:56;17.60;;;12.03;;
9720;SDS011;4899;42.644;23.366;2023-02-11T04:10:21;19.03;;;11.90;;
9720;SDS011;4899;42.644;23.366;2023-02-11T04:12:47;20.90;;;11.73;;
9720;SDS011;4899;42.644;23.366;2023-02-11T04:15:13;18.43;;;12.33;;
9720;SDS011;4899;42.644;23.366;2023-02-11T04:17:38;19.90;;;12.03;;
9720;SDS011;4899;42.644;23.366;2023-02-11T04:20:04;20.10;;;11.90;;
9720;SDS011;4899;42.644;23.366;2023-02-11T04:22:30;20.83;;;12.13;;
9720;SDS011;4899;42.644;23.366;2023-02-11T04:24:56;17.03;;;12.47;;
9720;SDS011;4899;42.644;23.366;2023-02-11T04:27:21;18.00;;;11.67;;
9720;SDS011;4899;42.644;23.366;2023-02-11T04:29:47;16.63;;;12.67;;
9720;SDS011;4899;42.644;23.366;2023-02-11T04:32:13;19.00;;;12.70;;
9720;SDS011;4899;42.644;23.366;2023-02-11T04:34:38;18.60;;;13.23;;
9720;SDS011;4899;42.644;23.366;2023-02-11T04:37:04;17.30;;;13.37;;
9720;SDS011;4899;42.644;23.366;2023-02-11T04:39:29;19.37;;;13.87;;
9720;SDS011;4899;42.644;23.366;2023-02-11T04:41:55;21.73;;;14.57;;
9720;SDS011;4899;42.644;23.366;2023-02-11T04:44:20;19.43;;;12.97;;
9720;SDS011;4899;42.644;23.366;2023-02-11T04:46:47;24.00;;;14.23;;
9720;SDS011;4899;42.644;23.366;2023-02-11T04:49:13;19.03;;;13.10;;
9720;SDS011;4899;42.644;23.366;2023-02-11T04:51:40;19.20;;;13.47;;
9720;SDS011;4899;42.644;23.366;2023-02-11T04:54:21;23.20;;;14.43;;
9720;SDS011;4899;42.644;23.366;2023-02-11T04:56:46;18.77;;;13.53;;
9720;SDS011;4899;42.644;23.366;2023-02-11T04:59:12;21.47;;;14.97;;
9720;SDS011;4899;42.644;23.366;2023-02-11T05:01:38;21.23;;;14.13;;
9720;SDS011;4899;42.644;23.366;2023-02-11T05:04:04;24.60;;;15.10;;
9720;SDS011;4899;42.644;23.366;2023-02-11T05:06:29;22.27;;;14.73;;
9720;SDS011;4899;42.644;23.366;2023-02-11T05:08:57;21.50;;;15.23;;
9720;SDS011;4899;42.644;23.366;2023-02-11T05:11:23;19.37;;;12.50;;
9720;SDS011;4899;42.644;23.366;2023-02-11T05:13:49;21.07;;;11.77;;
9720;SDS011;4899;42.644;23.366;2023-02-11T05:16:16;23.57;;;13.93;;
9720;SDS011;4899;42.644;23.366;2023-02-11T05:18:42;22.27;;;14.47;;
9720;SDS011;4899;42.644;23.366;2023-02-11T05:21:09;21.63;;;14.27;;
9720;SDS011;4899;42.644;23.366;2023-02-11T05:23:42;21.30;;;13.73;;
9720;SDS011;4899;42.644;23.366;2023-02-11T05:26:08;19.73;;;12.73;;
9720;SDS011;4899;42.644;23.366;2023-02-11T05:28:34;19.43;;;13.70;;
9720;SDS011;4899;42.644;23.366;2023-02-11T05:31:01;17.87;;;12.10;;
9720;SDS011;4899;42.644;23.366;2023-02-11T05:33:28;23.57;;;14.60;;
9720;SDS011;4899;42.644;23.366;2023-02-11T05:35:57;23.80;;;14.30;;
9720;SDS011;4899;42.644;23.366;2023-02-11T05:38:24;22.57;;;13.90;;
9720;SDS011;4899;42.644;23.366;2023-02-11T05:40:50;22.43;;;13.90;;
9720;SDS011;4899;42.644;23.366;2023-02-11T05:43:16;21.07;;;13.30;;
9720;SDS011;4899;42.644;23.366;2023-02-11T05:45:42;22.90;;;14.97;;
9720;SDS011;4899;42.644;23.366;2023-02-11T05:48:07;22.20;;;14.03;;
9720;SDS011;4899;42.644;23.366;2023-02-11T05:50:33;22.40;;;13.20;;
9720;SDS011;4899;42.644;23.366;2023-02-11T05:52:58;19.03;;;12.43;;
9720;SDS011;4899;42.644;23.366;2023-02-11T05:55:24;21.63;;;13.43;;
9720;SDS011;4899;42.644;23.366;2023-02-11T05:57:49;20.70;;;13.17;;
9720;SDS011;4899;42.644;23.366;2023-02-11T06:00:15;21.30;;;13.23;;
9720;SDS011;4899;42.644;23.366;2023-02-11T06:02:41;22.10;;;14.10;;
9720;SDS011;4899;42.644;23.366;2023-02-11T06:05:06;20.03;;;13.60;;
9720;SDS011;4899;42.644;23.366;2023-02-11T06:07:32;24.57;;;14.47;;
9720;SDS011;4899;42.644;23.366;2023-02-11T06:09:57;21.10;;;13.63;;
9720;SDS011;4899;42.644;23.366;2023-02-11T06:12:27;21.10;;;14.00;;
9720;SDS011;4899;42.644;23.366;2023-02-11T06:14:53;23.10;;;14.73;;
9720;SDS011;4899;42.644;23.366;2023-02-11T06:17:18;24.00;;;15.10;;
9720;SDS011;4899;42.644;23.366;2023-02-11T06:19:44;22.83;;;15.67;;
9720;SDS011;4899;42.644;23.366;2023-02-11T06:22:09;22.93;;;16.53;;
9720;SDS011;4899;42.644;23.366;2023-02-11T06:24:34;20.23;;;14.53;;
9720;SDS011;4899;42.644;23.366;2023-02-11T06:27:02;23.87;;;16.07;;
9720;SDS011;4899;42.644;23.366;2023-02-11T06:29:29;25.50;;;15.00;;
9720;SDS011;4899;42.644;23.366;2023-02-11T06:31:55;27.27;;;15.20;;
9720;SDS011;4899;42.644;23.366;2023-02-11T06:34:20;26.10;;;15.53;;
9720;SDS011;4899;42.644;23.366;2023-02-11T06:36:48;25.13;;;16.40;;
9720;SDS011;4899;42.644;23.366;2023-02-11T06:39:13;26.20;;;16.60;;
9720;SDS011;4899;42.644;23.366;2023-02-11T06:41:39;23.87;;;16.10;;
9720;SDS011;4899;42.644;23.366;2023-02-11T06:44:06;27.10;;;15.80;;
9720;SDS011;4899;42.644;23.366;2023-02-11T06:46:32;27.60;;;17.27;;
9720;SDS011;4899;42.644;23.366;2023-02-11T06:48:57;24.33;;;17.07;;
9720;SDS011;4899;42.644;23.366;2023-02-11T06:51:23;29.63;;;18.20;;
9720;SDS011;4899;42.644;23.366;2023-02-11T06:53:48;25.53;;;17.70;;
9720;SDS011;4899;42.644;23.366;2023-02-11T06:56:15;28.63;;;18.17;;
9720;SDS011;4899;42.644;23.366;2023-02-11T07:01:16;29.47;;;18.00;;
9720;SDS011;4899;42.644;23.366;2023-02-11T07:03:42;27.33;;;17.73;;
9720;SDS011;4899;42.644;23.366;2023-02-11T07:06:10;28.63;;;17.40;;
9720;SDS011;4899;42.644;23.366;2023-02-11T07:08:38;29.33;;;18.37;;
9720;SDS011;4899;42.644;23.366;2023-02-11T07:11:08;25.97;;;16.77;;
9720;SDS011;4899;42.644;23.366;2023-02-11T07:13:40;29.10;;;17.10;;
9720;SDS011;4899;42.644;23.366;2023-02-11T07:16:07;25.60;;;17.63;;
9720;SDS011;4899;42.644;23.366;2023-02-11T07:18:34;25.43;;;16.77;;
9720;SDS011;4899;42.644;23.366;2023-02-11T07:23:34;27.60;;;17.53;;
9720;SDS011;4899;42.644;23.366;2023-02-11T07:26:02;25.10;;;17.60;;
9720;SDS011;4899;42.644;23.366;2023-02-11T07:28:29;23.53;;;16.43;;
9720;SDS011;4899;42.644;23.366;2023-02-11T07:30:55;30.07;;;19.37;;
9720;SDS011;4899;42.644;23.366;2023-02-11T07:33:21;30.27;;;18.53;;
9720;SDS011;4899;42.644;23.366;2023-02-11T07:35:47;31.53;;;18.80;;
9720;SDS011;4899;42.644;23.366;2023-02-11T07:38:13;26.00;;;18.47;;
9720;SDS011;4899;42.644;23.366;2023-02-11T07:40:38;27.77;;;18.83;;
9720;SDS011;4899;42.644;23.366;2023-02-11T07:43:05;28.40;;;18.30;;
9720;SDS011;4899;42.644;23.366;2023-02-11T07:45:30;25.67;;;16.47;;
9720;SDS011;4899;42.644;23.366;2023-02-11T07:47:56;24.67;;;16.87;;
9720;SDS011;4899;42.644;23.366;2023-02-11T07:50:22;26.63;;;18.00;;
9720;SDS011;4899;42.644;23.366;2023-02-11T07:52:47;28.43;;;16.47;;
9720;SDS011;4899;42.644;23.366;2023-02-11T07:55:12;19.47;;;14.17;;
9720;SDS011;4899;42.644;23.366;2023-02-11T07:57:38;20.33;;;13.93;;
9720;SDS011;4899;42.644;23.366;2023-02-11T08:00:05;22.73;;;15.13;;
9720;SDS011;4899;42.644;23.366;2023-02-11T08:02:31;24.23;;;14.27;;
9720;SDS011;4899;42.644;23.366;2023-02-11T08:04:58;23.13;;;15.47;;
9720;SDS011;4899;42.644;23.366;2023-02-11T08:07:23;20.97;;;14.60;;
9720;SDS011;4899;42.644;23.366;2023-02-11T08:09:48;24.60;;;16.30;;
9720;SDS011;4899;42.644;23.366;2023-02-11T08:12:14;21.83;;;15.83;;
9720;SDS011;4899;42.644;23.366;2023-02-11T08:14:39;21.60;;;16.07;;
9720;SDS011;4899;42.644;23.366;2023-02-11T08:17:05;21.73;;;14.20;;
9720;SDS011;4899;42.644;23.366;2023-02-11T08:19:33;23.10;;;15.07;;
9720;SDS011;4899;42.644;23.366;2023-02-11T08:21:59;20.70;;;14.47;;
9720;SDS011;4899;42.644;23.366;2023-02-11T08:24:25;19.30;;;13.07;;
9720;SDS011;4899;42.644;23.366;2023-02-11T08:26:51;22.07;;;14.33;;
9720;SDS011;4899;42.644;23.366;2023-02-11T08:29:16;22.90;;;14.73;;
9720;SDS011;4899;42.644;23.366;2023-02-11T08:31:43;24.33;;;15.73;;
9720;SDS011;4899;42.644;23.366;2023-02-11T08:34:11;22.67;;;15.00;;
9720;SDS011;4899;42.644;23.366;2023-02-11T08:36:40;20.97;;;13.07;;
9720;SDS011;4899;42.644;23.366;2023-02-11T08:39:08;20.03;;;13.77;;
9720;SDS011;4899;42.644;23.366;2023-02-11T08:41:37;18.67;;;13.60;;
9720;SDS011;4899;42.644;23.366;2023-02-11T08:44:03;23.00;;;15.57;;
9720;SDS011;4899;42.644;23.366;2023-02-11T08:46:29;24.70;;;15.90;;
9720;SDS011;4899;42.644;23.366;2023-02-11T08:48:54;24.67;;;16.27;;
9720;SDS011;4899;42.644;23.366;2023-02-11T08:51:25;24.30;;;15.70;;
9720;SDS011;4899;42.644;23.366;2023-02-11T08:53:52;21.13;;;14.87;;
9720;SDS011;4899;42.644;23.366;2023-02-11T08:56:19;23.83;;;16.20;;
9720;SDS011;4899;42.644;23.366;2023-02-11T08:58:45;21.47;;;14.50;;
9720;SDS011;4899;42.644;23.366;2023-02-11T09:03:42;23.67;;;15.77;;
9720;SDS011;4899;42.644;23.366;2023-02-11T09:06:13;22.07;;;15.10;;
9720;SDS011;4899;42.644;23.366;2023-02-11T09:08:40;31.10;;;18.33;;
9720;SDS011;4899;42.644;23.366;2023-02-11T09:11:08;22.83;;;14.57;;
9720;SDS011;4899;42.644;23.366;2023-02-11T09:13:34;23.50;;;16.07;;
9720;SDS011;4899;42.644;23.366;2023-02-11T09:16:01;24.23;;;15.17;;
9720;SDS011;4899;42.644;23.366;2023-02-11T09:18:29;23.83;;;15.90;;
9720;SDS011;4899;42.644;23.366;2023-02-11T09:21:04;22.77;;;16.20;;
9720;SDS011;4899;42.644;23.366;2023-02-11T09:23:31;20.33;;;15.17;;
9720;SDS011;4899;42.644;23.366;2023-02-11T09:26:08;21.27;;;15.73;;
9720;SDS011;4899;42.644;23.366;2023-02-11T09:28:46;24.40;;;15.23;;
9720;SDS011;4899;42.644;23.366;2023-02-11T09:31:13;22.13;;;15.33;;
9720;SDS011;4899;42.644;23.366;2023-02-11T09:33:42;25.80;;;16.83;;
9720;SDS011;4899;42.644;23.366;2023-02-11T09:36:12;25.63;;;14.50;;
9720;SDS011;4899;42.644;23.366;2023-02-11T09:38:58;23.17;;;15.50;;
9720;SDS011;4899;42.644;23.366;2023-02-11T09:44:30;19.40;;;14.70;;
9720;SDS011;4899;42.644;23.366;2023-02-11T09:47:44;18.83;;;13.57;;
9720;SDS011;4899;42.644;23.366;2023-02-11T09:50:04;18.70;;;12.93;;
9720;SDS011;4899;42.644;23.366;2023-02-11T09:55:45;19.57;;;13.07;;
9720;SDS011;4899;42.644;23.366;2023-02-11T10:23:21;16.83;;;13.10;;
9720;SDS011;4899;42.644;23.366;2023-02-11T10:25:56;12.33;;;9.63;;
9720;SDS011;4899;42.644;23.366;2023-02-11T10:28:26;19.23;;;13.07;;
9720;SDS011;4899;42.644;23.366;2023-02-11T10:36:30;18.73;;;10.80;;
9720;SDS011;4899;42.644;23.366;2023-02-11T10:38:59;16.97;;;10.87;;
9720;SDS011;4899;42.644;23.366;2023-02-11T10:41:35;16.77;;;12.57;;
9720;SDS011;4899;42.644;23.366;2023-02-11T10:44:05;17.03;;;11.33;;
9720;SDS011;4899;42.644;23.366;2023-02-11T10:46:35;16.90;;;11.03;;
9720;SDS011;4899;42.644;23.366;2023-02-11T10:49:04;15.63;;;10.97;;
9720;SDS011;4899;42.644;23.366;2023-02-11T10:51:30;11.47;;;9.70;;
9720;SDS011;4899;42.644;23.366;2023-02-11T10:56:35;18.60;;;10.07;;
9720;SDS011;4899;42.644;23.366;2023-02-11T10:59:14;16.73;;;10.63;;
9720;SDS011;4899;42.644;23.366;2023-02-11T11:01:52;14.53;;;11.00;;
9720;SDS011;4899;42.644;23.366;2023-02-11T11:04:40;14.67;;;11.37;;
9720;SDS011;4899;42.644;23.366;2023-02-11T11:07:19;16.53;;;11.27;;
9720;SDS011;4899;42.644;23.366;2023-02-11T11:10:01;15.03;;;10.13;;
9720;SDS011;4899;42.644;23.366;2023-02-11T11:12:37;14.17;;;10.30;;
9720;SDS011;4899;42.644;23.366;2023-02-11T11:15:19;15.63;;;10.33;;
9720;SDS011;4899;42.644;23.366;2023-02-11T11:17:50;12.27;;;10.00;;
9720;SDS011;4899;42.644;23.366;2023-02-11T11:20:35;14.80;;;10.73;;
9720;SDS011;4899;42.644;23.366;2023-02-11T11:23:21;17.77;;;11.37;;
9720;SDS011;4899;42.644;23.366;2023-02-11T11:28:38;16.63;;;10.80;;
9720;SDS011;4899;42.644;23.366;2023-02-11T11:31:45;14.63;;;10.70;;
9720;SDS011;4899;42.644;23.366;2023-02-11T11:34:01;18.97;;;11.80;;
9720;SDS011;4899;42.644;23.366;2023-02-11T11:36:41;16.00;;;10.60;;
9720;SDS011;4899;42.644;23.366;2023-02-11T11:39:54;16.77;;;11.23;;
9720;SDS011;4899;42.644;23.366;2023-02-11T11:42:04;15.53;;;11.87;;
9720;SDS011;4899;42.644;23.366;2023-02-11T11:44:55;14.67;;;11.80;;
9720;SDS011;4899;42.644;23.366;2023-02-11T11:47:35;14.70;;;11.07;;
9720;SDS011;4899;42.644;23.366;2023-02-11T11:53:06;13.77;;;8.33;;
9720;SDS011;4899;42.644;23.366;2023-02-11T11:55:41;11.87;;;9.00;;
9720;SDS011;4899;42.644;23.366;2023-02-11T11:58:10;12.73;;;10.07;;
9720;SDS011;4899;42.644;23.366;2023-02-11T12:08:36;13.27;;;10.37;;
9720;SDS011;4899;42.644;23.366;2023-02-11T12:15:24;13.63;;;11.37;;
9720;SDS011;4899;42.644;23.366;2023-02-11T12:26:23;13.03;;;10.23;;
9720;SDS011;4899;42.644;23.366;2023-02-11T12:40:52;11.13;;;9.93;;
9720;SDS011;4899;42.644;23.366;2023-02-11T12:43:19;12.33;;;9.53;;
9720;SDS011;4899;42.644;23.366;2023-02-11T12:51:38;9.97;;;8.00;;
9720;SDS011;4899;42.644;23.366;2023-02-11T12:54:26;9.27;;;8.23;;
9720;SDS011;4899;42.644;23.366;2023-02-11T12:57:16;9.77;;;8.83;;
9720;SDS011;4899;42.644;23.366;2023-02-11T12:59:48;9.93;;;8.43;;
9720;SDS011;4899;42.644;23.366;2023-02-11T13:02:38;10.47;;;9.37;;
9720;SDS011;4899;42.644;23.366;2023-02-11T13:05:18;11.53;;;9.07;;
9720;SDS011;4899;42.644;23.366;2023-02-11T13:07:45;12.33;;;9.30;;
9720;SDS011;4899;42.644;23.366;2023-02-11T13:10:23;15.60;;;9.80;;
9720;SDS011;4899;42.644;23.366;2023-02-11T13:12:53;9.70;;;8.70;;
9720;SDS011;4899;42.644;23.366;2023-02-11T13:15:38;9.50;;;8.57;;
9720;SDS011;4899;42.644;23.366;2023-02-11T13:26:45;12.73;;;9.70;;
9720;SDS011;4899;42.644;23.366;2023-02-11T13:29:25;11.93;;;8.83;;
9720;SDS011;4899;42.644;23.366;2023-02-11T13:32:22;10.67;;;9.40;;
9720;SDS011;4899;42.644;23.366;2023-02-11T13:39:57;12.60;;;9.50;;
9720;SDS011;4899;42.644;23.366;2023-02-11T13:42:29;11.17;;;9.97;;
9720;SDS011;4899;42.644;23.366;2023-02-11T13:45:21;12.07;;;9.97;;
9720;SDS011;4899;42.644;23.366;2023-02-11T13:47:58;10.87;;;9.80;;
9720;SDS011;4899;42.644;23.366;2023-02-11T13:50:25;10.43;;;9.33;;
9720;SDS011;4899;42.644;23.366;2023-02-11T13:52:56;11.57;;;9.30;;
9720;SDS011;4899;42.644;23.366;2023-02-11T13:55:24;10.73;;;9.67;;
9720;SDS011;4899;42.644;23.366;2023-02-11T14:03:16;11.07;;;9.93;;
9720;SDS011;4899;42.644;23.366;2023-02-11T14:14:20;16.30;;;12.70;;
9720;SDS011;4899;42.644;23.366;2023-02-11T14:19:33;11.47;;;10.03;;
9720;SDS011;4899;42.644;23.366;2023-02-11T14:27:13;11.40;;;9.97;;
9720;SDS011;4899;42.644;23.366;2023-02-11T14:35:27;10.17;;;9.17;;
9720;SDS011;4899;42.644;23.366;2023-02-11T14:38:06;10.53;;;9.43;;
9720;SDS011;4899;42.644;23.366;2023-02-11T14:43:26;10.57;;;9.40;;
9720;SDS011;4899;42.644;23.366;2023-02-11T14:45:55;13.37;;;10.23;;
9720;SDS011;4899;42.644;23.366;2023-02-11T14:48:29;10.47;;;9.40;;
9720;SDS011;4899;42.644;23.366;2023-02-11T14:51:04;10.43;;;9.30;;
9720;SDS011;4899;42.644;23.366;2023-02-11T14:53:34;12.40;;;10.07;;
9720;SDS011;4899;42.644;23.366;2023-02-11T14:56:01;15.50;;;10.03;;
9720;SDS011;4899;42.644;23.366;2023-02-11T14:58:30;11.97;;;10.07;;
9720;SDS011;4899;42.644;23.366;2023-02-11T15:00:57;14.47;;;10.90;;
9720;SDS011;4899;42.644;23.366;2023-02-11T15:03:40;11.53;;;10.33;;
9720;SDS011;4899;42.644;23.366;2023-02-11T15:09:56;14.93;;;10.17;;
9720;SDS011;4899;42.644;23.366;2023-02-11T15:11:56;13.60;;;11.13;;
9720;SDS011;4899;42.644;23.366;2023-02-11T15:14:28;13.57;;;10.10;;
9720;SDS011;4899;42.644;23.366;2023-02-11T15:16:57;16.13;;;10.53;;
9720;SDS011;4899;42.644;23.366;2023-02-11T15:19:36;13.57;;;11.20;;
9720;SDS011;4899;42.644;23.366;2023-02-11T15:22:14;14.33;;;10.67;;
9720;SDS011;4899;42.644;23.366;2023-02-11T15:27:37;12.47;;;9.47;;
9720;SDS011;4899;42.644;23.366;2023-02-11T15:30:16;14.73;;;10.93;;
9720;SDS011;4899;42.644;23.366;2023-02-11T15:32:51;15.23;;;10.40;;
9720;SDS011;4899;42.644;23.366;2023-02-11T15:35:34;17.10;;;10.70;;
9720;SDS011;4899;42.644;23.366;2023-02-11T15:38:02;13.50;;;10.53;;
9720;SDS011;4899;42.644;23.366;2023-02-11T15:40:30;13.60;;;10.60;;
9720;SDS011;4899;42.644;23.366;2023-02-11T15:43:04;17.03;;;10.73;;
9720;SDS011;4899;42.644;23.366;2023-02-11T15:48:16;17.57;;;12.27;;
9720;SDS011;4899;42.644;23.366;2023-02-11T15:50:56;22.67;;;14.47;;
9720;SDS011;4899;42.644;23.366;2023-02-11T15:53:41;17.37;;;12.63;;
9720;SDS011;4899;42.644;23.366;2023-02-11T15:56:13;17.43;;;11.77;;
9720;SDS011;4899;42.644;23.366;2023-02-11T15:58:48;16.50;;;11.60;;
9720;SDS011;4899;42.644;23.366;2023-02-11T16:01:17;20.27;;;14.53;;
9720;SDS011;4899;42.644;23.366;2023-02-11T16:03:43;24.50;;;15.50;;
9720;SDS011;4899;42.644;23.366;2023-02-11T16:08:40;20.57;;;14.97;;
9720;SDS011;4899;42.644;23.366;2023-02-11T16:11:28;21.77;;;15.50;;
9720;SDS011;4899;42.644;23.366;2023-02-11T16:13:55;28.67;;;15.67;;
9720;SDS011;4899;42.644;23.366;2023-02-11T16:16:30;24.57;;;15.70;;
9720;SDS011;4899;42.644;23.366;2023-02-11T16:18:58;21.73;;;14.43;;
9720;SDS011;4899;42.644;23.366;2023-02-11T16:21:30;23.60;;;15.83;;
9720;SDS011;4899;42.644;23.366;2023-02-11T16:23:59;22.23;;;17.33;;
9720;SDS011;4899;42.644;23.366;2023-02-11T16:26:29;28.20;;;18.53;;
9720;SDS011;4899;42.644;23.366;2023-02-11T16:29:06;34.13;;;22.97;;
9720;SDS011;4899;42.644;23.366;2023-02-11T16:31:36;36.90;;;26.40;;
9720;SDS011;4899;42.644;23.366;2023-02-11T16:34:09;27.17;;;17.33;;
9720;SDS011;4899;42.644;23.366;2023-02-11T16:36:54;23.87;;;18.57;;
9720;SDS011;4899;42.644;23.366;2023-02-11T16:39:20;23.27;;;16.97;;
9720;SDS011;4899;42.644;23.366;2023-02-11T16:41:46;30.80;;;20.07;;
9720;SDS011;4899;42.644;23.366;2023-02-11T16:44:15;38.93;;;21.37;;
9720;SDS011;4899;42.644;23.366;2023-02-11T16:46:42;27.37;;;18.93;;
9720;SDS011;4899;42.644;23.366;2023-02-11T16:49:10;31.53;;;22.70;;
9720;SDS011;4899;42.644;23.366;2023-02-11T16:51:41;36.17;;;21.17;;
9720;SDS011;4899;42.644;23.366;2023-02-11T16:54:12;30.60;;;20.37;;
9720;SDS011;4899;42.644;23.366;2023-02-11T16:56:39;28.87;;;17.43;;
9720;SDS011;4899;42.644;23.366;2023-02-11T16:59:05;26.87;;;19.00;;
9720;SDS011;4899;42.644;23.366;2023-02-11T17:01:30;19.30;;;13.87;;
9720;SDS011;4899;42.644;23.366;2023-02-11T17:03:56;22.40;;;14.10;;
9720;SDS011;4899;42.644;23.366;2023-02-11T17:06:22;15.40;;;10.23;;
9720;SDS011;4899;42.644;23.366;2023-02-11T17:08:47;15.50;;;12.23;;
9720;SDS011;4899;42.644;23.366;2023-02-11T17:11:14;12.37;;;9.47;;
9720;SDS011;4899;42.644;23.366;2023-02-11T17:13:41;14.90;;;10.33;;
9720;SDS011;4899;42.644;23.366;2023-02-11T17:16:10;13.50;;;10.40;;
9720;SDS011;4899;42.644;23.366;2023-02-11T17:18:41;16.20;;;10.30;;
9720;SDS011;4899;42.644;23.366;2023-02-11T17:21:07;12.20;;;9.57;;
9720;SDS011;4899;42.644;23.366;2023-02-11T17:23:33;13.03;;;9.60;;
9720;SDS011;4899;42.644;23.366;2023-02-11T17:25:58;16.87;;;9.80;;
9720;SDS011;4899;42.644;23.366;2023-02-11T17:28:23;12.67;;;9.63;;
9720;SDS011;4899;42.644;23.366;2023-02-11T17:30:49;14.63;;;10.30;;
9720;SDS011;4899;42.644;23.366;2023-02-11T17:33:14;12.47;;;9.27;;
9720;SDS011;4899;42.644;23.366;2023-02-11T17:35:40;11.47;;;8.83;;
9720;SDS011;4899;42.644;23.366;2023-02-11T17:38:06;11.17;;;8.60;;
9720;SDS011;4899;42.644;23.366;2023-02-11T17:40:32;12.03;;;9.53;;
9720;SDS011;4899;42.644;23.366;2023-02-11T17:42:57;13.93;;;9.73;;
9720;SDS011;4899;42.644;23.366;2023-02-11T17:45:23;11.77;;;10.57;;
9720;SDS011;4899;42.644;23.366;2023-02-11T17:47:48;12.03;;;8.57;;